sensor_id;sensor_type;location;lat;lon;timestamp;pressure;altitude;pressure_sealevel;temperature;humidity
10668;BME280;5382;42.136;24.796;2023-04-19T00:02:10;99498.31;;;11.10;100.00
10668;BME280;5382;42.136;24.796;2023-04-19T00:04:37;99494.69;;;11.11;100.00
10668;BME280;5382;42.136;24.796;2023-04-19T00:07:04;99497.22;;;11.02;100.00
10668;BME280;5382;42.136;24.796;2023-04-19T00:09:31;99497.13;;;11.03;100.00
10668;BME280;5382;42.136;24.796;2023-04-19T00:11:57;99484.88;;;11.02;100.00
10668;BME280;5382;42.136;24.796;2023-04-19T00:14:25;99483.41;;;10.98;100.00
10668;BME280;5382;42.136;24.796;2023-04-19T00:16:53;99485.09;;;10.99;100.00
10668;BME280;5382;42.136;24.796;2023-04-19T00:19:20;99479.31;;;10.94;100.00
10668;BME280;5382;42.136;24.796;2023-04-19T00:21:47;99482.56;;;10.98;100.00
10668;BME280;5382;42.136;24.796;2023-04-19T00:24:14;99469.19;;;10.99;100.00
10668;BME280;5382;42.136;24.796;2023-04-19T00:26:41;99476.44;;;10.97;100.00
10668;BME280;5382;42.136;24.796;2023-04-19T00:29:08;99467.66;;;10.97;100.00
10668;BME280;5382;42.136;24.796;2023-04-19T00:31:35;99452.25;;;10.90;100.00
10668;BME280;5382;42.136;24.796;2023-04-19T00:34:05;99456.38;;;10.95;100.00
10668;BME280;5382;42.136;24.796;2023-04-19T00:36:32;99464.88;;;10.98;100.00
10668;BME280;5382;42.136;24.796;2023-04-19T00:38:59;99457.31;;;11.05;100.00
10668;BME280;5382;42.136;24.796;2023-04-19T00:41:25;99465.69;;;11.10;100.00
10668;BME280;5382;42.136;24.796;2023-04-19T00:43:52;99463.44;;;11.05;100.00
10668;BME280;5382;42.136;24.796;2023-04-19T00:46:19;99456.59;;;11.03;100.00
10668;BME280;5382;42.136;24.796;2023-04-19T00:48:46;99453.22;;;11.01;100.00
10668;BME280;5382;42.136;24.796;2023-04-19T00:51:15;99463.19;;;11.08;100.00
10668;BME280;5382;42.136;24.796;2023-04-19T00:53:42;99461.25;;;11.10;100.00
10668;BME280;5382;42.136;24.796;2023-04-19T00:56:09;99460.28;;;11.11;100.00
10668;BME280;5382;42.136;24.796;2023-04-19T00:58:37;99463.91;;;11.10;100.00
10668;BME280;5382;42.136;24.796;2023-04-19T01:01:04;99456.06;;;11.09;100.00
10668;BME280;5382;42.136;24.796;2023-04-19T01:03:31;99452.69;;;11.07;100.00
10668;BME280;5382;42.136;24.796;2023-04-19T01:05:59;99450.41;;;11.13;100.00
10668;BME280;5382;42.136;24.796;2023-04-19T01:08:27;99449.63;;;11.23;100.00
10668;BME280;5382;42.136;24.796;2023-04-19T01:10:54;99451.09;;;11.27;100.00
10668;BME280;5382;42.136;24.796;2023-04-19T01:13:20;99452.34;;;11.11;100.00
10668;BME280;5382;42.136;24.796;2023-04-19T01:15:47;99446.03;;;11.24;100.00
10668;BME280;5382;42.136;24.796;2023-04-19T01:18:15;99450.72;;;11.20;100.00
10668;BME280;5382;42.136;24.796;2023-04-19T01:20:43;99447.25;;;11.20;100.00
10668;BME280;5382;42.136;24.796;2023-04-19T01:23:11;99449.78;;;11.21;100.00
10668;BME280;5382;42.136;24.796;2023-04-19T01:25:38;99439.81;;;11.13;100.00
10668;BME280;5382;42.136;24.796;2023-04-19T01:28:05;99438.13;;;11.12;100.00
10668;BME280;5382;42.136;24.796;2023-04-19T01:30:32;99434.25;;;11.17;100.00
10668;BME280;5382;42.136;24.796;2023-04-19T01:32:59;99428.72;;;11.20;100.00
10668;BME280;5382;42.136;24.796;2023-04-19T01:35:26;99428.97;;;11.17;100.00
10668;BME280;5382;42.136;24.796;2023-04-19T01:37:53;99429.09;;;11.15;100.00
10668;BME280;5382;42.136;24.796;2023-04-19T01:40:23;99427.03;;;11.19;100.00
10668;BME280;5382;42.136;24.796;2023-04-19T01:42:51;99430.41;;;11.21;100.00
10668;BME280;5382;42.136;24.796;2023-04-19T01:45:35;99429.22;;;11.13;100.00
10668;BME280;5382;42.136;24.796;2023-04-19T01:48:02;99428.97;;;11.17;100.00
10668;BME280;5382;42.136;24.796;2023-04-19T01:50:29;99425.22;;;11.19;100.00
10668;BME280;5382;42.136;24.796;2023-04-19T01:52:56;99415.34;;;11.21;100.00
10668;BME280;5382;42.136;24.796;2023-04-19T01:55:24;99414.25;;;11.24;100.00
10668;BME280;5382;42.136;24.796;2023-04-19T01:57:51;99415.22;;;11.23;100.00
10668;BME280;5382;42.136;24.796;2023-04-19T02:00:19;99411.34;;;11.27;100.00
10668;BME280;5382;42.136;24.796;2023-04-19T02:02:46;99403.22;;;11.19;100.00
10668;BME280;5382;42.136;24.796;2023-04-19T02:05:14;99406.06;;;11.27;100.00
10668;BME280;5382;42.136;24.796;2023-04-19T02:07:41;99408.72;;;11.27;100.00
10668;BME280;5382;42.136;24.796;2023-04-19T02:10:09;99401.84;;;11.24;100.00
10668;BME280;5382;42.136;24.796;2023-04-19T02:12:39;99395.59;;;11.25;100.00
10668;BME280;5382;42.136;24.796;2023-04-19T02:15:07;99401.94;;;11.34;100.00
10668;BME280;5382;42.136;24.796;2023-04-19T02:17:34;99400.88;;;11.25;100.00
10668;BME280;5382;42.136;24.796;2023-04-19T02:20:01;99396.66;;;11.23;100.00
10668;BME280;5382;42.136;24.796;2023-04-19T02:22:29;99400.03;;;11.25;100.00
10668;BME280;5382;42.136;24.796;2023-04-19T02:24:55;99390.75;;;11.30;100.00
10668;BME280;5382;42.136;24.796;2023-04-19T02:27:22;99391.47;;;11.32;100.00
10668;BME280;5382;42.136;24.796;2023-04-19T02:29:51;99396.50;;;11.35;100.00
10668;BME280;5382;42.136;24.796;2023-04-19T02:32:17;99397.81;;;11.41;100.00
10668;BME280;5382;42.136;24.796;2023-04-19T02:34:44;99395.94;;;11.32;100.00
10668;BME280;5382;42.136;24.796;2023-04-19T02:37:11;99393.47;;;11.40;100.00
10668;BME280;5382;42.136;24.796;2023-04-19T02:39:38;99391.28;;;11.45;100.00
10668;BME280;5382;42.136;24.796;2023-04-19T02:42:06;99392.00;;;11.47;100.00
10668;BME280;5382;42.136;24.796;2023-04-19T02:44:33;99386.31;;;11.52;100.00
10668;BME280;5382;42.136;24.796;2023-04-19T02:47:01;99383.53;;;11.53;100.00
10668;BME280;5382;42.136;24.796;2023-04-19T02:49:29;99388.97;;;11.52;100.00
10668;BME280;5382;42.136;24.796;2023-04-19T02:52:01;99388.31;;;11.39;100.00
10668;BME280;5382;42.136;24.796;2023-04-19T02:54:28;99382.63;;;11.43;100.00
10668;BME280;5382;42.136;24.796;2023-04-19T02:56:55;99392.53;;;11.41;100.00
10668;BME280;5382;42.136;24.796;2023-04-19T02:59:22;99388.63;;;11.45;100.00
10668;BME280;5382;42.136;24.796;2023-04-19T03:01:48;99384.56;;;11.41;100.00
10668;BME280;5382;42.136;24.796;2023-04-19T03:04:17;99394.00;;;11.34;100.00
10668;BME280;5382;42.136;24.796;2023-04-19T03:06:44;99394.47;;;11.39;100.00
10668;BME280;5382;42.136;24.796;2023-04-19T03:09:10;99396.66;;;11.34;100.00
10668;BME280;5382;42.136;24.796;2023-04-19T03:11:37;99395.94;;;11.32;100.00
10668;BME280;5382;42.136;24.796;2023-04-19T03:14:04;99393.00;;;11.35;100.00
10668;BME280;5382;42.136;24.796;2023-04-19T03:16:31;99389.44;;;11.25;100.00
10668;BME280;5382;42.136;24.796;2023-04-19T03:18:58;99392.47;;;11.20;100.00
10668;BME280;5382;42.136;24.796;2023-04-19T03:21:26;99388.03;;;11.21;100.00
10668;BME280;5382;42.136;24.796;2023-04-19T03:23:53;99387.91;;;11.22;100.00
10668;BME280;5382;42.136;24.796;2023-04-19T03:26:20;99392.88;;;11.16;100.00
10668;BME280;5382;42.136;24.796;2023-04-19T03:28:47;99379.88;;;11.12;100.00
10668;BME280;5382;42.136;24.796;2023-04-19T03:31:14;99388.53;;;11.14;100.00
10668;BME280;5382;42.136;24.796;2023-04-19T03:33:40;99387.19;;;11.20;100.00
10668;BME280;5382;42.136;24.796;2023-04-19T03:36:08;99381.69;;;11.12;100.00
10668;BME280;5382;42.136;24.796;2023-04-19T03:38:36;99383.69;;;11.20;100.00
10668;BME280;5382;42.136;24.796;2023-04-19T03:41:03;99380.47;;;11.16;100.00
10668;BME280;5382;42.136;24.796;2023-04-19T03:43:30;99391.63;;;11.20;100.00
10668;BME280;5382;42.136;24.796;2023-04-19T03:45:57;99389.44;;;11.25;100.00
10668;BME280;5382;42.136;24.796;2023-04-19T03:48:24;99400.75;;;11.27;100.00
10668;BME280;5382;42.136;24.796;2023-04-19T03:50:50;99405.03;;;11.18;100.00
10668;BME280;5382;42.136;24.796;2023-04-19T03:53:17;99392.34;;;11.22;100.00
10668;BME280;5382;42.136;24.796;2023-04-19T03:55:45;99388.03;;;11.21;100.00
10668;BME280;5382;42.136;24.796;2023-04-19T03:58:12;99395.34;;;11.28;100.00
10668;BME280;5382;42.136;24.796;2023-04-19T04:00:39;99397.03;;;11.29;100.00
10668;BME280;5382;42.136;24.796;2023-04-19T04:03:05;99395.56;;;11.37;100.00
10668;BME280;5382;42.136;24.796;2023-04-19T04:05:33;99398.06;;;11.38;100.00
10668;BME280;5382;42.136;24.796;2023-04-19T04:08:00;99392.63;;;11.40;100.00
10668;BME280;5382;42.136;24.796;2023-04-19T04:10:27;99394.72;;;11.36;100.00
10668;BME280;5382;42.136;24.796;2023-04-19T04:12:55;99390.72;;;11.42;100.00
10668;BME280;5382;42.136;24.796;2023-04-19T04:15:21;99400.47;;;11.41;100.00
10668;BME280;5382;42.136;24.796;2023-04-19T04:17:49;99392.53;;;11.41;100.00
10668;BME280;5382;42.136;24.796;2023-04-19T04:20:16;99392.97;;;11.46;100.00
10668;BME280;5382;42.136;24.796;2023-04-19T04:22:43;99404.41;;;11.47;100.00
10668;BME280;5382;42.136;24.796;2023-04-19T04:25:10;99392.56;;;11.51;100.00
10668;BME280;5382;42.136;24.796;2023-04-19T04:27:37;99374.81;;;11.42;100.00
10668;BME280;5382;42.136;24.796;2023-04-19T04:30:07;99382.31;;;11.57;100.00
10668;BME280;5382;42.136;24.796;2023-04-19T04:32:34;99393.38;;;11.63;100.00
10668;BME280;5382;42.136;24.796;2023-04-19T04:35:01;99397.19;;;11.70;100.00
10668;BME280;5382;42.136;24.796;2023-04-19T04:37:28;99396.25;;;11.81;100.00
10668;BME280;5382;42.136;24.796;2023-04-19T04:39:55;99394.84;;;11.76;100.00
10668;BME280;5382;42.136;24.796;2023-04-19T04:42:22;99395.53;;;11.78;100.00
10668;BME280;5382;42.136;24.796;2023-04-19T04:44:49;99398.75;;;11.82;100.00
10668;BME280;5382;42.136;24.796;2023-04-19T04:47:18;99399.13;;;11.89;100.00
10668;BME280;5382;42.136;24.796;2023-04-19T04:49:45;99401.06;;;11.87;100.00
10668;BME280;5382;42.136;24.796;2023-04-19T04:52:12;99397.19;;;11.91;100.00
10668;BME280;5382;42.136;24.796;2023-04-19T04:54:39;99407.09;;;11.89;100.00
10668;BME280;5382;42.136;24.796;2023-04-19T04:57:05;99400.41;;;11.94;100.00
10668;BME280;5382;42.136;24.796;2023-04-19T04:59:32;99409.91;;;11.97;100.00
10668;BME280;5382;42.136;24.796;2023-04-19T05:01:59;99402.78;;;11.97;100.00
10668;BME280;5382;42.136;24.796;2023-04-19T05:04:27;99404.75;;;11.95;100.00
10668;BME280;5382;42.136;24.796;2023-04-19T05:06:54;99415.94;;;11.99;100.00
10668;BME280;5382;42.136;24.796;2023-04-19T05:09:20;99418.50;;;12.10;100.00
10668;BME280;5382;42.136;24.796;2023-04-19T05:11:47;99417.53;;;12.11;100.00
10668;BME280;5382;42.136;24.796;2023-04-19T05:14:14;99406.09;;;12.11;100.00
10668;BME280;5382;42.136;24.796;2023-04-19T05:16:41;99418.94;;;12.15;100.00
10668;BME280;5382;42.136;24.796;2023-04-19T05:19:07;99413.25;;;12.20;100.00
10668;BME280;5382;42.136;24.796;2023-04-19T05:21:36;99416.59;;;12.22;100.00
10668;BME280;5382;42.136;24.796;2023-04-19T05:24:03;99407.66;;;12.23;100.00
10668;BME280;5382;42.136;24.796;2023-04-19T05:26:30;99408.78;;;12.20;100.00
10668;BME280;5382;42.136;24.796;2023-04-19T05:28:57;99413.41;;;12.28;100.00
10668;BME280;5382;42.136;24.796;2023-04-19T05:31:24;99412.19;;;12.32;100.00
10668;BME280;5382;42.136;24.796;2023-04-19T05:33:51;99421.09;;;12.31;100.00
10668;BME280;5382;42.136;24.796;2023-04-19T05:36:18;99414.69;;;12.34;100.00
10668;BME280;5382;42.136;24.796;2023-04-19T05:38:46;99420.44;;;12.39;100.00
10668;BME280;5382;42.136;24.796;2023-04-19T05:41:14;99407.75;;;12.42;100.00
10668;BME280;5382;42.136;24.796;2023-04-19T05:43:41;99412.63;;;12.37;100.00
10668;BME280;5382;42.136;24.796;2023-04-19T05:46:07;99415.44;;;12.46;100.00
10668;BME280;5382;42.136;24.796;2023-04-19T05:48:34;99424.13;;;12.48;100.00
10668;BME280;5382;42.136;24.796;2023-04-19T05:51:01;99413.94;;;12.53;100.00
10668;BME280;5382;42.136;24.796;2023-04-19T05:53:28;99417.16;;;12.56;100.00
10668;BME280;5382;42.136;24.796;2023-04-19T05:55:57;99412.94;;;12.54;100.00
10668;BME280;5382;42.136;24.796;2023-04-19T05:58:23;99408.22;;;12.57;100.00
10668;BME280;5382;42.136;24.796;2023-04-19T06:00:50;99418.69;;;12.59;100.00
10668;BME280;5382;42.136;24.796;2023-04-19T06:03:17;99419.84;;;12.66;100.00
10668;BME280;5382;42.136;24.796;2023-04-19T06:05:44;99413.72;;;12.75;100.00
10668;BME280;5382;42.136;24.796;2023-04-19T06:08:11;99409.13;;;12.87;100.00
10668;BME280;5382;42.136;24.796;2023-04-19T06:10:40;99413.31;;;12.90;100.00
10668;BME280;5382;42.136;24.796;2023-04-19T06:13:09;99417.13;;;12.97;100.00
10668;BME280;5382;42.136;24.796;2023-04-19T06:15:36;99422.44;;;13.06;100.00
10668;BME280;5382;42.136;24.796;2023-04-19T06:18:04;99421.06;;;13.12;100.00
10668;BME280;5382;42.136;24.796;2023-04-19T06:20:34;99420.38;;;13.20;100.00
10668;BME280;5382;42.136;24.796;2023-04-19T06:23:01;99417.03;;;13.27;100.00
10668;BME280;5382;42.136;24.796;2023-04-19T06:25:28;99418.56;;;13.40;100.00
10668;BME280;5382;42.136;24.796;2023-04-19T06:27:54;99419.69;;;13.47;100.00
10668;BME280;5382;42.136;24.796;2023-04-19T06:30:23;99424.59;;;13.51;100.00
10668;BME280;5382;42.136;24.796;2023-04-19T06:32:49;99419.09;;;13.63;100.00
10668;BME280;5382;42.136;24.796;2023-04-19T06:35:17;99422.06;;;13.69;100.00
10668;BME280;5382;42.136;24.796;2023-04-19T06:37:43;99432.81;;;13.78;100.00
10668;BME280;5382;42.136;24.796;2023-04-19T06:40:11;99429.56;;;13.93;100.00
10668;BME280;5382;42.136;24.796;2023-04-19T06:42:37;99435.16;;;14.00;100.00
10668;BME280;5382;42.136;24.796;2023-04-19T06:45:05;99440.19;;;14.03;100.00
10668;BME280;5382;42.136;24.796;2023-04-19T06:47:33;99436.81;;;14.01;100.00
10668;BME280;5382;42.136;24.796;2023-04-19T06:50:00;99445.38;;;13.95;100.00
10668;BME280;5382;42.136;24.796;2023-04-19T06:52:27;99439.22;;;13.94;100.00
10668;BME280;5382;42.136;24.796;2023-04-19T06:54:54;99444.66;;;14.03;100.00
10668;BME280;5382;42.136;24.796;2023-04-19T06:57:21;99443.78;;;14.12;100.00
10668;BME280;5382;42.136;24.796;2023-04-19T06:59:48;99439.75;;;14.17;100.00
10668;BME280;5382;42.136;24.796;2023-04-19T07:02:14;99431.75;;;14.17;100.00
10668;BME280;5382;42.136;24.796;2023-04-19T07:04:43;99445.59;;;14.21;100.00
10668;BME280;5382;42.136;24.796;2023-04-19T07:07:10;99440.69;;;14.26;100.00
10668;BME280;5382;42.136;24.796;2023-04-19T07:09:36;99449.38;;;14.28;100.00
10668;BME280;5382;42.136;24.796;2023-04-19T07:12:05;99453.16;;;14.26;100.00
10668;BME280;5382;42.136;24.796;2023-04-19T07:14:32;99427.50;;;14.25;100.00
10668;BME280;5382;42.136;24.796;2023-04-19T07:16:59;99443.63;;;14.33;100.00
10668;BME280;5382;42.136;24.796;2023-04-19T07:19:26;99442.91;;;14.31;100.00
10668;BME280;5382;42.136;24.796;2023-04-19T07:21:54;99440.22;;;14.40;100.00
10668;BME280;5382;42.136;24.796;2023-04-19T07:24:21;99445.00;;;14.27;100.00
10668;BME280;5382;42.136;24.796;2023-04-19T07:26:48;99443.66;;;14.13;100.00
10668;BME280;5382;42.136;24.796;2023-04-19T07:29:14;99449.09;;;14.12;100.00
10668;BME280;5382;42.136;24.796;2023-04-19T07:31:42;99448.84;;;14.15;100.00
10668;BME280;5382;42.136;24.796;2023-04-19T07:34:08;99454.28;;;14.23;100.00
10668;BME280;5382;42.136;24.796;2023-04-19T07:36:35;99445.81;;;14.37;100.00
10668;BME280;5382;42.136;24.796;2023-04-19T07:39:04;99450.81;;;14.50;100.00
10668;BME280;5382;42.136;24.796;2023-04-19T07:41:31;99449.28;;;14.57;100.00
10668;BME280;5382;42.136;24.796;2023-04-19T07:43:58;99453.00;;;14.74;100.00
10668;BME280;5382;42.136;24.796;2023-04-19T07:46:25;99460.97;;;14.74;100.00
10668;BME280;5382;42.136;24.796;2023-04-19T07:48:52;99470.78;;;14.74;100.00
10668;BME280;5382;42.136;24.796;2023-04-19T07:51:18;99461.06;;;14.82;100.00
10668;BME280;5382;42.136;24.796;2023-04-19T07:53:48;99460.56;;;14.97;100.00
10668;BME280;5382;42.136;24.796;2023-04-19T07:56:16;99458.97;;;15.04;100.00
10668;BME280;5382;42.136;24.796;2023-04-19T07:58:44;99439.56;;;15.12;100.00
10668;BME280;5382;42.136;24.796;2023-04-19T08:01:11;99453.53;;;15.23;100.00
10668;BME280;5382;42.136;24.796;2023-04-19T08:03:38;99454.31;;;15.34;100.00
10668;BME280;5382;42.136;24.796;2023-04-19T08:06:06;99470.97;;;15.54;100.00
10668;BME280;5382;42.136;24.796;2023-04-19T08:08:33;99459.16;;;15.56;100.00
10668;BME280;5382;42.136;24.796;2023-04-19T08:11:00;99464.72;;;15.63;100.00
10668;BME280;5382;42.136;24.796;2023-04-19T08:13:31;99466.50;;;15.54;100.00
10668;BME280;5382;42.136;24.796;2023-04-19T08:15:58;99448.50;;;15.56;100.00
10668;BME280;5382;42.136;24.796;2023-04-19T08:18:25;99457.41;;;15.65;100.00
10668;BME280;5382;42.136;24.796;2023-04-19T08:20:52;99449.19;;;15.58;100.00
10668;BME280;5382;42.136;24.796;2023-04-19T08:23:20;99452.75;;;15.85;100.00
10668;BME280;5382;42.136;24.796;2023-04-19T08:25:47;99449.84;;;15.96;100.00
10668;BME280;5382;42.136;24.796;2023-04-19T08:28:14;99447.75;;;16.08;100.00
10668;BME280;5382;42.136;24.796;2023-04-19T08:30:42;99455.97;;;15.88;100.00
10668;BME280;5382;42.136;24.796;2023-04-19T08:33:08;99471.34;;;15.95;100.00
10668;BME280;5382;42.136;24.796;2023-04-19T08:35:36;99448.47;;;15.92;100.00
10668;BME280;5382;42.136;24.796;2023-04-19T08:38:05;99459.38;;;15.99;100.00
10668;BME280;5382;42.136;24.796;2023-04-19T08:40:32;99443.41;;;16.07;100.00
10668;BME280;5382;42.136;24.796;2023-04-19T08:43:04;99459.56;;;16.31;100.00
10668;BME280;5382;42.136;24.796;2023-04-19T08:45:31;99436.84;;;16.19;100.00
10668;BME280;5382;42.136;24.796;2023-04-19T08:48:00;99437.63;;;16.11;100.00
10668;BME280;5382;42.136;24.796;2023-04-19T08:50:27;99443.69;;;16.22;100.00
10668;BME280;5382;42.136;24.796;2023-04-19T08:52:54;99430.47;;;16.20;100.00
10668;BME280;5382;42.136;24.796;2023-04-19T08:55:23;99431.56;;;16.35;100.00
10668;BME280;5382;42.136;24.796;2023-04-19T08:57:50;99436.25;;;16.42;100.00
10668;BME280;5382;42.136;24.796;2023-04-19T09:00:18;99430.56;;;16.36;100.00
10668;BME280;5382;42.136;24.796;2023-04-19T09:02:47;99430.56;;;16.36;100.00
10668;BME280;5382;42.136;24.796;2023-04-19T09:05:17;99432.44;;;16.44;100.00
10668;BME280;5382;42.136;24.796;2023-04-19T09:07:45;99439.72;;;16.60;100.00
10668;BME280;5382;42.136;24.796;2023-04-19T09:10:14;99430.25;;;16.74;100.00
10668;BME280;5382;42.136;24.796;2023-04-19T09:12:41;99449.84;;;16.83;100.00
10668;BME280;5382;42.136;24.796;2023-04-19T09:15:09;99450.88;;;16.90;100.00
10668;BME280;5382;42.136;24.796;2023-04-19T09:17:36;99446.56;;;17.05;100.00
10668;BME280;5382;42.136;24.796;2023-04-19T09:20:04;99445.09;;;17.19;100.00
10668;BME280;5382;42.136;24.796;2023-04-19T09:22:33;99432.25;;;17.39;100.00
10668;BME280;5382;42.136;24.796;2023-04-19T09:24:59;99437.94;;;17.60;100.00
10668;BME280;5382;42.136;24.796;2023-04-19T09:27:28;99436.66;;;17.97;100.00
10668;BME280;5382;42.136;24.796;2023-04-19T09:29:56;99434.09;;;18.12;100.00
10668;BME280;5382;42.136;24.796;2023-04-19T09:32:23;99434.13;;;17.96;100.00
10668;BME280;5382;42.136;24.796;2023-04-19T09:34:52;99428.44;;;17.99;100.00
10668;BME280;5382;42.136;24.796;2023-04-19T09:37:19;99439.47;;;18.04;100.00
10668;BME280;5382;42.136;24.796;2023-04-19T09:39:48;99426.59;;;17.91;100.00
10668;BME280;5382;42.136;24.796;2023-04-19T09:42:15;99426.59;;;17.91;100.00
10668;BME280;5382;42.136;24.796;2023-04-19T09:44:59;99435.28;;;18.01;100.00
10668;BME280;5382;42.136;24.796;2023-04-19T09:47:27;99436.44;;;18.07;100.00
10668;BME280;5382;42.136;24.796;2023-04-19T09:50:12;99428.56;;;18.22;100.00
10668;BME280;5382;42.136;24.796;2023-04-19T09:52:39;99417.28;;;18.43;100.00
10668;BME280;5382;42.136;24.796;2023-04-19T09:55:08;99415.16;;;18.78;100.00
10668;BME280;5382;42.136;24.796;2023-04-19T09:57:35;99408.81;;;19.02;100.00
10668;BME280;5382;42.136;24.796;2023-04-19T10:00:02;99407.19;;;19.24;100.00
10668;BME280;5382;42.136;24.796;2023-04-19T10:02:34;99408.84;;;19.25;100.00
10668;BME280;5382;42.136;24.796;2023-04-19T10:05:03;99407.38;;;18.91;100.00
10668;BME280;5382;42.136;24.796;2023-04-19T10:07:31;99403.91;;;18.74;100.00
10668;BME280;5382;42.136;24.796;2023-04-19T10:09:59;99396.22;;;18.79;100.00
10668;BME280;5382;42.136;24.796;2023-04-19T10:12:28;99391.91;;;19.01;100.00
10668;BME280;5382;42.136;24.796;2023-04-19T10:14:56;99388.84;;;18.81;100.00
10668;BME280;5382;42.136;24.796;2023-04-19T10:17:23;99392.38;;;19.28;100.00
10668;BME280;5382;42.136;24.796;2023-04-19T10:19:55;99379.31;;;19.48;100.00
10668;BME280;5382;42.136;24.796;2023-04-19T10:22:24;99372.84;;;19.80;100.00
10668;BME280;5382;42.136;24.796;2023-04-19T10:25:11;99361.41;;;20.31;100.00
10668;BME280;5382;42.136;24.796;2023-04-19T10:27:40;99367.88;;;20.51;100.00
10668;BME280;5382;42.136;24.796;2023-04-19T10:30:16;99356.91;;;20.67;100.00
10668;BME280;5382;42.136;24.796;2023-04-19T10:32:46;99351.03;;;20.94;100.00
10668;BME280;5382;42.136;24.796;2023-04-19T10:35:17;99342.94;;;20.57;100.00
10668;BME280;5382;42.136;24.796;2023-04-19T10:38:05;99348.53;;;20.56;100.00
10668;BME280;5382;42.136;24.796;2023-04-19T10:40:57;99348.16;;;21.38;100.00
10668;BME280;5382;42.136;24.796;2023-04-19T10:43:27;99343.56;;;21.60;100.00
10668;BME280;5382;42.136;24.796;2023-04-19T10:45:58;99338.31;;;21.45;100.00
10668;BME280;5382;42.136;24.796;2023-04-19T10:48:40;99342.91;;;21.51;100.00
10668;BME280;5382;42.136;24.796;2023-04-19T10:51:18;99331.19;;;21.66;100.00
10668;BME280;5382;42.136;24.796;2023-04-19T10:53:50;99322.00;;;21.82;100.00
10668;BME280;5382;42.136;24.796;2023-04-19T10:56:19;99322.00;;;21.82;100.00
10668;BME280;5382;42.136;24.796;2023-04-19T10:59:15;99321.66;;;21.98;100.00
10668;BME280;5382;42.136;24.796;2023-04-19T11:01:51;99328.47;;;21.59;100.00
10668;BME280;5382;42.136;24.796;2023-04-19T11:04:20;99322.50;;;21.42;100.00
10668;BME280;5382;42.136;24.796;2023-04-19T11:07:01;99338.03;;;20.97;100.00
10668;BME280;5382;42.136;24.796;2023-04-19T11:09:31;99335.84;;;21.07;100.00
10668;BME280;5382;42.136;24.796;2023-04-19T11:12:00;99331.22;;;21.01;100.00
10668;BME280;5382;42.136;24.796;2023-04-19T11:14:31;99325.34;;;20.91;100.00
10668;BME280;5382;42.136;24.796;2023-04-19T11:16:59;99328.16;;;21.26;100.00
10668;BME280;5382;42.136;24.796;2023-04-19T11:19:26;99327.72;;;21.72;100.00
10668;BME280;5382;42.136;24.796;2023-04-19T11:21:57;99314.56;;;22.25;100.00
10668;BME280;5382;42.136;24.796;2023-04-19T11:24:24;99317.22;;;22.60;100.00
10668;BME280;5382;42.136;24.796;2023-04-19T11:26:51;99313.63;;;22.39;100.00
10668;BME280;5382;42.136;24.796;2023-04-19T11:29:18;99316.63;;;22.71;100.00
10668;BME280;5382;42.136;24.796;2023-04-19T11:31:48;99306.22;;;22.68;100.00
10668;BME280;5382;42.136;24.796;2023-04-19T11:34:15;99315.84;;;22.29;100.00
10668;BME280;5382;42.136;24.796;2023-04-19T11:36:47;99313.56;;;21.63;100.00
10668;BME280;5382;42.136;24.796;2023-04-19T11:39:14;99312.50;;;21.36;100.00
10668;BME280;5382;42.136;24.796;2023-04-19T11:41:41;99313.88;;;21.04;100.00
10668;BME280;5382;42.136;24.796;2023-04-19T11:44:14;99319.72;;;21.07;100.00
10668;BME280;5382;42.136;24.796;2023-04-19T11:46:41;99312.13;;;20.75;100.00
10668;BME280;5382;42.136;24.796;2023-04-19T11:49:24;99316.03;;;20.72;100.00
10668;BME280;5382;42.136;24.796;2023-04-19T11:51:55;99314.88;;;20.45;100.00
10668;BME280;5382;42.136;24.796;2023-04-19T11:54:22;99311.53;;;20.43;100.00
10668;BME280;5382;42.136;24.796;2023-04-19T11:57:02;99312.06;;;20.53;100.00
10668;BME280;5382;42.136;24.796;2023-04-19T11:59:30;99309.69;;;20.29;100.00
10668;BME280;5382;42.136;24.796;2023-04-19T12:02:05;99320.53;;;20.35;100.00
10668;BME280;5382;42.136;24.796;2023-04-19T12:04:34;99318.53;;;20.08;100.00
10668;BME280;5382;42.136;24.796;2023-04-19T12:07:02;99316.09;;;19.98;100.00
10668;BME280;5382;42.136;24.796;2023-04-19T12:09:32;99308.31;;;20.03;100.00
10668;BME280;5382;42.136;24.796;2023-04-19T12:11:59;99307.03;;;19.84;100.00
10668;BME280;5382;42.136;24.796;2023-04-19T12:14:26;99306.09;;;19.62;100.00
10668;BME280;5382;42.136;24.796;2023-04-19T12:17:07;99304.69;;;19.13;100.00
10668;BME280;5382;42.136;24.796;2023-04-19T12:19:37;99300.38;;;18.81;100.00
10668;BME280;5382;42.136;24.796;2023-04-19T12:22:11;99300.56;;;18.71;100.00
10668;BME280;5382;42.136;24.796;2023-04-19T12:24:38;99308.72;;;18.24;100.00
10668;BME280;5382;42.136;24.796;2023-04-19T12:27:06;99314.41;;;18.21;100.00
10668;BME280;5382;42.136;24.796;2023-04-19T12:29:33;99312.25;;;18.16;100.00
10668;BME280;5382;42.136;24.796;2023-04-19T12:32:01;99321.41;;;17.74;100.00
10668;BME280;5382;42.136;24.796;2023-04-19T12:34:28;99321.06;;;17.69;100.00
10668;BME280;5382;42.136;24.796;2023-04-19T12:36:56;99315.84;;;17.76;100.00
10668;BME280;5382;42.136;24.796;2023-04-19T12:39:23;99316.25;;;17.48;100.00
10668;BME280;5382;42.136;24.796;2023-04-19T12:41:49;99319.25;;;16.96;100.00
10668;BME280;5382;42.136;24.796;2023-04-19T12:44:16;99327.72;;;16.75;100.00
10668;BME280;5382;42.136;24.796;2023-04-19T12:46:43;99322.81;;;16.03;100.00
10668;BME280;5382;42.136;24.796;2023-04-19T12:49:10;99342.06;;;15.63;100.00
10668;BME280;5382;42.136;24.796;2023-04-19T12:51:36;99328.34;;;14.96;100.00
10668;BME280;5382;42.136;24.796;2023-04-19T12:54:05;99338.03;;;14.51;100.00
10668;BME280;5382;42.136;24.796;2023-04-19T12:56:33;99331.53;;;14.36;100.00